^^
MeteoGriva-Weather Station Historical Data
Daily Summary for April 28, 2020 Units:  Both    English   Metric
Daily Weekly Monthly Yearly Custom
  High: Low: Average:
Temperature: 56.3 °F /  13.5 °C 43.7 °F /  6.5 °C 49.3 °F /  9.6 °C
Dew Point: 47.8 °F /  8.8 °C 39.9 °F /  4.4 °C 43.7 °F /  6.5 °C
Humidity: 99% 67.4% 82%
Wind Speed: 2.6mph /  4.2km/h - 0.2mph /  0.4km/h
Wind Gust: 10.1mph /  16.3km/h - -
Wind- - South
Pressure: 30 in /  1014.2 hPa 0 in /  0.0 hPa -
Precipitation: 0 in /  0.0 mm    
Historical Graphs
 
 
Tabular Data for April 28, 2020
Time Temperature Dew Point Pressure Wind Wind Speed Wind Gust Humidity Rainfall Rate (Hourly) solar
00:04 46.2 °F /  7.9 °C 45.7 °F /  7.6 °C 29.9in /  1013.5hPa Calm     97.3% 0in /  0.0mm 0 W/m2
00:09 46.6 °F /  8.1 °C 45.5 °F /  7.5 °C 29.9in /  1013.5hPa Calm     96.1% 0in /  0.0mm 0 W/m2
00:14 46.6 °F /  8.1 °C 45.3 °F /  7.4 °C 29.9in /  1013.5hPa Calm     95.6% 0in /  0.0mm 0 W/m2
00:19 46.6 °F /  8.1 °C 45.1 °F /  7.3 °C 29.9in /  1013.5hPa Calm     95.2% 0in /  0.0mm 0 W/m2
00:24 46.4 °F /  8 °C 45.1 °F /  7.3 °C 29.9in /  1013.2hPa Calm     95.4% 0in /  0.0mm 0 W/m2
00:29 46.2 °F /  7.9 °C 45.5 °F /  7.5 °C 29.9in /  1013.2hPa Calm     97% 0in /  0.0mm 0 W/m2
00:34 46.2 °F /  7.9 °C 45.7 °F /  7.6 °C 29.9in /  1013.5hPa Calm     97.6% 0in /  0.0mm 0 W/m2
00:39 46 °F /  7.8 °C 45.5 °F /  7.5 °C 29.9in /  1013.2hPa North 0.4mph /  0.6km/h 4.9mph /  7.9km/h 98% 0in /  0.0mm 0 W/m2
00:44 46 °F /  7.8 °C 45.3 °F /  7.4 °C 29.9in /  1013.2hPa Calm   4.9mph /  7.9km/h 97.1% 0in /  0.0mm 0 W/m2
00:49 45.9 °F /  7.7 °C 45.3 °F /  7.4 °C 29.9in /  1013.2hPa Calm     97.9% 0in /  0.0mm 0 W/m2
00:54 45.9 °F /  7.7 °C 45.3 °F /  7.4 °C 29.9in /  1013.2hPa Calm     98% 0in /  0.0mm 0 W/m2
00:59 45.7 °F /  7.6 °C 45.1 °F /  7.3 °C 29.9in /  1013.2hPa Calm     97.9% 0in /  0.0mm 0 W/m2
01:04 45.7 °F /  7.6 °C 44.8 °F /  7.1 °C 29.9in /  1013.2hPa Calm     96.7% 0in /  0.0mm 0 W/m2
01:09 45.5 °F /  7.5 °C 44.6 °F /  7 °C 29.9in /  1012.9hPa SW 0.1mph /  0.2km/h 2.5mph /  4km/h 96.7% 0in /  0.0mm 0 W/m2
01:14 45.5 °F /  7.5 °C 43.9 °F /  6.6 °C 29.9in /  1012.9hPa NW 1.1mph /  1.8km/h 7.6mph /  12.2km/h 94.2% 0in /  0.0mm 0 W/m2
01:19 45.5 °F /  7.5 °C 44.4 °F /  6.9 °C 29.9in /  1013.2hPa NNW 1.7mph /  2.8km/h 7.6mph /  12.2km/h 96.1% 0in /  0.0mm 0 W/m2
01:24 45.5 °F /  7.5 °C 45.3 °F /  7.4 °C 29.9in /  1012.9hPa NNE 0.1mph /  0.1km/h 2.5mph /  4km/h 99% 0in /  0.0mm 0 W/m2
01:29 45.3 °F /  7.4 °C 45.1 °F /  7.3 °C 29.9in /  1012.9hPa Calm   2.5mph /  4km/h 99% 0in /  0.0mm 0 W/m2
01:34 45.3 °F /  7.4 °C 45.1 °F /  7.3 °C 29.9in /  1013.2hPa Calm     99% 0in /  0.0mm 0 W/m2
01:39 45.1 °F /  7.3 °C 45 °F /  7.2 °C 29.9in /  1013.2hPa WNW 0.1mph /  0.2km/h 2.5mph /  4km/h 99% 0in /  0.0mm 0 W/m2
01:44 45.3 °F /  7.4 °C 45 °F /  7.2 °C 29.9in /  1013.2hPa NNE 0.5mph /  0.8km/h 4.9mph /  7.9km/h 97.9% 0in /  0.0mm 0 W/m2
01:49 45.7 °F /  7.6 °C 45.1 °F /  7.3 °C 29.9in /  1012.9hPa Calm   4.9mph /  7.9km/h 98% 0in /  0.0mm 0 W/m2
01:54 45.5 °F /  7.5 °C 45.3 °F /  7.4 °C 29.9in /  1013.2hPa Calm     99% 0in /  0.0mm 0 W/m2
01:59 45.3 °F /  7.4 °C 45.1 °F /  7.3 °C 29.9in /  1013.2hPa NW 0.4mph /  0.7km/h 4.9mph /  7.9km/h 99% 0in /  0.0mm 0 W/m2
02:04 45.1 °F /  7.3 °C 44.8 °F /  7.1 °C 29.9in /  1013.2hPa Calm   4.9mph /  7.9km/h 99% 0in /  0.0mm 0 W/m2
02:09 44.6 °F /  7 °C 44.4 °F /  6.9 °C 29.9in /  1013.2hPa North 0.1mph /  0.1km/h 2.5mph /  4km/h 99% 0in /  0.0mm 0 W/m2
02:14 44.6 °F /  7 °C 44.2 °F /  6.8 °C 29.9in /  1013.2hPa NW 0.4mph /  0.7km/h 4.9mph /  7.9km/h 98.3% 0in /  0.0mm 0 W/m2
02:19 44.6 °F /  7 °C 44.1 °F /  6.7 °C 29.9in /  1013.2hPa WNW 0.1mph /  0.1km/h 2.5mph /  4km/h 97.5% 0in /  0.0mm 0 W/m2
02:24 44.4 °F /  6.9 °C 44.1 °F /  6.7 °C 29.9in /  1013.2hPa Calm     98.3% 0in /  0.0mm 0 W/m2
02:29 44.1 °F /  6.7 °C 43.9 °F /  6.6 °C 29.9in /  1013.2hPa Calm     99% 0in /  0.0mm 0 W/m2
02:34 44.1 °F /  6.7 °C 43.9 °F /  6.6 °C 29.9in /  1013.2hPa Calm     99% 0in /  0.0mm 0 W/m2
02:39 44.1 °F /  6.7 °C 43.5 °F /  6.4 °C 29.9in /  1013.2hPa Calm     98% 0in /  0.0mm 0 W/m2
02:44 44.1 °F /  6.7 °C 43.5 °F /  6.4 °C 29.9in /  1013.2hPa Calm     98% 0in /  0.0mm 0 W/m2
02:49 43.7 °F /  6.5 °C 43.2 °F /  6.2 °C 29.9in /  1013.2hPa Calm     97.9% 0in /  0.0mm 0 W/m2
02:54 43.7 °F /  6.5 °C 42.4 °F /  5.8 °C 29.9in /  1013.2hPa Calm     95.1% 0in /  0.0mm 0 W/m2
02:59 43.9 °F /  6.6 °C 42.1 °F /  5.6 °C 29.9in /  1013.2hPa Calm   2.5mph /  4km/h 93.1% 0in /  0.0mm 0 W/m2
03:04 44.2 °F /  6.8 °C 41.7 °F /  5.4 °C 29.9in /  1013.2hPa Calm     91.1% 0in /  0.0mm 0 W/m2
03:09 45 °F /  7.2 °C 42.3 °F /  5.7 °C 29.9in /  1013.2hPa Calm     90.3% 0in /  0.0mm 0 W/m2
03:14 44.8 °F /  7.1 °C 42.3 °F /  5.7 °C 29.9in /  1013.2hPa Calm     91% 0in /  0.0mm 0 W/m2
03:19 44.8 °F /  7.1 °C 42.3 °F /  5.7 °C 29.9in /  1013.2hPa Calm     91.1% 0in /  0.0mm 0 W/m2
03:24 44.8 °F /  7.1 °C 42.6 °F /  5.9 °C 29.9in /  1013.2hPa Calm     92% 0in /  0.0mm 0 W/m2
03:29 44.6 °F /  7 °C 42.6 °F /  5.9 °C 29.9in /  1012.9hPa Calm     92.7% 0in /  0.0mm 0 W/m2
03:34 44.6 °F /  7 °C 42.6 °F /  5.9 °C 29.9in /  1013.2hPa Calm     93% 0in /  0.0mm 0 W/m2
03:39 44.6 °F /  7 °C 42.6 °F /  5.9 °C 29.9in /  1013.2hPa Calm     93% 0in /  0.0mm 0 W/m2
03:44 44.4 °F /  6.9 °C 42.4 °F /  5.8 °C 29.9in /  1012.9hPa Calm     92.4% 0in /  0.0mm 0 W/m2
03:49 44.6 °F /  7 °C 42.3 °F /  5.7 °C 29.9in /  1012.9hPa Calm     91.7% 0in /  0.0mm 0 W/m2
03:54 44.6 °F /  7 °C 42.4 °F /  5.8 °C 29.9in /  1012.9hPa Calm     92.1% 0in /  0.0mm 0 W/m2
03:59 44.4 °F /  6.9 °C 42.4 °F /  5.8 °C 29.9in /  1012.9hPa Calm   2.5mph /  4km/h 92.8% 0in /  0.0mm 0 W/m2
04:04 44.2 °F /  6.8 °C 42.3 °F /  5.7 °C 29.9in /  1012.9hPa WNW 0.4mph /  0.7km/h 4.9mph /  7.9km/h 93% 0in /  0.0mm 0 W/m2
04:09 43.9 °F /  6.6 °C 41.9 °F /  5.5 °C 29.9in /  1012.9hPa Calm   4.9mph /  7.9km/h 92.4% 0in /  0.0mm 0 W/m2
04:14 43.9 °F /  6.6 °C 41.5 °F /  5.3 °C 29.9in /  1012.9hPa Calm     91.3% 0in /  0.0mm 0 W/m2
04:19 44.1 °F /  6.7 °C 41.7 °F /  5.4 °C 29.9in /  1012.5hPa WNW 0.2mph /  0.4km/h 2.5mph /  4km/h 91.6% 0in /  0.0mm 0 W/m2
04:24 44.1 °F /  6.7 °C 41.5 °F /  5.3 °C 29.9in /  1012.5hPa Calm     91% 0in /  0.0mm 0 W/m2
04:29 43.9 °F /  6.6 °C 41.9 °F /  5.5 °C 29.9in /  1012.9hPa WNW 0.2mph /  0.3km/h 2.5mph /  4km/h 92.6% 0in /  0.0mm 0 W/m2
04:34 43.9 °F /  6.6 °C 41.5 °F /  5.3 °C 29.9in /  1012.5hPa Calm   2.5mph /  4km/h 91.4% 0in /  0.0mm 0 W/m2
04:39 43.9 °F /  6.6 °C 41.4 °F /  5.2 °C 29.9in /  1012.5hPa Calm   2.5mph /  4km/h 90.7% 0in /  0.0mm 0 W/m2
04:44 44.1 °F /  6.7 °C 41.4 °F /  5.2 °C 29.9in /  1012.9hPa Calm     90.6% 0in /  0.0mm 0 W/m2
04:49 44.1 °F /  6.7 °C 41.4 °F /  5.2 °C 29.9in /  1012.5hPa West 0.1mph /  0.2km/h 2.5mph /  4km/h 90.4% 0in /  0.0mm 0 W/m2
04:54 44.1 °F /  6.7 °C 41.4 °F /  5.2 °C 29.9in /  1012.5hPa Calm   2.5mph /  4km/h 89.8% 0in /  0.0mm 0 W/m2
04:59 44.1 °F /  6.7 °C 41.4 °F /  5.2 °C 29.9in /  1012.5hPa Calm     90.2% 0in /  0.0mm 0 W/m2
05:04 44.1 °F /  6.7 °C 41.4 °F /  5.2 °C 29.9in /  1012.5hPa Calm     90% 0in /  0.0mm 0 W/m2
05:09 44.4 °F /  6.9 °C 41.2 °F /  5.1 °C 29.9in /  1012.5hPa WNW 0.4mph /  0.6km/h 2.5mph /  4km/h 88.6% 0in /  0.0mm 0 W/m2
05:14 44.4 °F /  6.9 °C 41.2 °F /  5.1 °C 29.9in /  1012.5hPa Calm   2.5mph /  4km/h 87.8% 0in /  0.0mm 0 W/m2
05:19 44.2 °F /  6.8 °C 41.4 °F /  5.2 °C 29.9in /  1012.5hPa NNW 0.1mph /  0.2km/h 2.5mph /  4km/h 89.1% 0in /  0.0mm 0 W/m2
05:24 44.2 °F /  6.8 °C 41.2 °F /  5.1 °C 29.9in /  1012.5hPa Calm     89% 0in /  0.0mm 0 W/m2
05:29 44.6 °F /  7 °C 41 °F /  5 °C 29.9in /  1012.5hPa Calm     87.3% 0in /  0.0mm 0 W/m2
05:34 44.6 °F /  7 °C 40.8 °F /  4.9 °C 29.9in /  1012.5hPa Calm     86.5% 0in /  0.0mm 0 W/m2
05:39 44.6 °F /  7 °C 40.6 °F /  4.8 °C 29.9in /  1012.5hPa Calm   2.5mph /  4km/h 86% 0in /  0.0mm 0 W/m2
05:44 44.6 °F /  7 °C 40.6 °F /  4.8 °C 29.9in /  1012.9hPa Calm     85.8% 0in /  0.0mm 0 W/m2
05:49 44.6 °F /  7 °C 40.6 °F /  4.8 °C 29.9in /  1012.9hPa Calm   2.5mph /  4km/h 86.1% 0in /  0.0mm 0 W/m2
05:54 44.8 °F /  7.1 °C 40.3 °F /  4.6 °C 29.9in /  1012.9hPa Calm     84.2% 0in /  0.0mm 0 W/m2
05:59 44.8 °F /  7.1 °C 40.5 °F /  4.7 °C 29.9in /  1012.9hPa Calm     84.4% 0in /  0.0mm 0 W/m2
06:04 45 °F /  7.2 °C 40.1 °F /  4.5 °C 29.9in /  1012.9hPa Calm     82.9% 0in /  0.0mm 0 W/m2
06:09 45.3 °F /  7.4 °C 40.3 °F /  4.6 °C 29.9in /  1012.9hPa Calm     82.7% 0in /  0.0mm 0 W/m2
06:14 45.3 °F /  7.4 °C 40.1 °F /  4.5 °C 29.9in /  1012.9hPa Calm     82.2% 0in /  0.0mm 0 W/m2
06:19 45.5 °F /  7.5 °C 40.5 °F /  4.7 °C 29.9in /  1012.9hPa Calm     82.9% 0in /  0.0mm 0 W/m2
06:24 45.3 °F /  7.4 °C 40.8 °F /  4.9 °C 29.9in /  1012.9hPa Calm     84% 0in /  0.0mm 0 W/m2
06:29 45 °F /  7.2 °C 40.5 °F /  4.7 °C 29.9in /  1012.5hPa Calm     84.2% 0in /  0.0mm 0 W/m2
06:34 44.8 °F /  7.1 °C 40.5 °F /  4.7 °C 29.9in /  1012.9hPa Calm     85.1% 0in /  0.0mm 0 W/m2
06:39 44.8 °F /  7.1 °C 40.3 °F /  4.6 °C 29.9in /  1012.5hPa Calm     84.3% 0in /  0.0mm 0 W/m2
06:44 44.8 °F /  7.1 °C 40.6 °F /  4.8 °C 29.9in /  1012.9hPa Calm     85.2% 0in /  0.0mm 0 W/m2
06:49 44.8 °F /  7.1 °C 40.5 °F /  4.7 °C 29.9in /  1012.9hPa SSW 0.2mph /  0.4km/h 2.5mph /  4km/h 84.9% 0in /  0.0mm 0 W/m2
06:54 44.8 °F /  7.1 °C 40.5 °F /  4.7 °C 29.9in /  1012.9hPa West 0.1mph /  0.2km/h 2.5mph /  4km/h 84.6% 0in /  0.0mm 0 W/m2
06:59 44.8 °F /  7.1 °C 40.6 °F /  4.8 °C 29.9in /  1012.9hPa Calm   2.5mph /  4km/h 85.6% 0in /  0.0mm 0 W/m2
07:04 44.8 °F /  7.1 °C 41 °F /  5 °C 29.9in /  1013.2hPa Calm     86.6% 0in /  0.0mm 0 W/m2
07:09 44.6 °F /  7 °C 40.8 °F /  4.9 °C 29.9in /  1013.2hPa Calm     86.9% 0in /  0.0mm 0 W/m2
07:14 44.4 °F /  6.9 °C 41.2 °F /  5.1 °C 29.9in /  1013.2hPa Calm     88.3% 0in /  0.0mm 0 W/m2
07:19 44.4 °F /  6.9 °C 40.6 °F /  4.8 °C 29.9in /  1013.2hPa Calm     86.7% 0in /  0.0mm 0 W/m2
07:24 44.2 °F /  6.8 °C 40.6 °F /  4.8 °C 29.9in /  1013.2hPa Calm   2.5mph /  4km/h 87.1% 0in /  0.0mm 0 W/m2
07:29 44.2 °F /  6.8 °C 40.5 °F /  4.7 °C 29.9in /  1013.5hPa Calm     86.3% 0in /  0.0mm 0 W/m2
07:34 44.2 °F /  6.8 °C 40.3 °F /  4.6 °C 29.9in /  1013.5hPa West 0.2mph /  0.3km/h 2.5mph /  4km/h 86.2% 0in /  0.0mm 0 W/m2
07:39 44.2 °F /  6.8 °C 40.1 °F /  4.5 °C 29.9in /  1013.5hPa Calm     85% 0in /  0.0mm 0 W/m2
07:44 44.4 °F /  6.9 °C 40.3 °F /  4.6 °C 29.9in /  1013.5hPa Calm     85% 0in /  0.0mm 0 W/m2
07:49 44.2 °F /  6.8 °C 40.5 °F /  4.7 °C 29.9in /  1013.5hPa Calm     86.6% 0in /  0.0mm 2 W/m2
07:54 44.2 °F /  6.8 °C 40.5 °F /  4.7 °C 29.9in /  1013.5hPa Calm     86.7% 0in /  0.0mm 6 W/m2
07:59 44.2 °F /  6.8 °C 40.6 °F /  4.8 °C 29.9in /  1013.5hPa Calm     86.7% 0in /  0.0mm 11 W/m2
08:04 44.4 °F /  6.9 °C 40.6 °F /  4.8 °C 29.9in /  1013.5hPa Calm     86.6% 0in /  0.0mm 17 W/m2
08:09 45.1 °F /  7.3 °C 41 °F /  5 °C 29.9in /  1013.5hPa Calm     85.6% 0in /  0.0mm 22 W/m2
08:14 45.3 °F /  7.4 °C 41.2 °F /  5.1 °C 29.9in /  1013.5hPa Calm     85.3% 0in /  0.0mm 27 W/m2
08:19 45.3 °F /  7.4 °C 41 °F /  5 °C 29.9in /  1013.5hPa Calm     84.4% 0in /  0.0mm 32 W/m2
08:24 45.7 °F /  7.6 °C 41 °F /  5 °C 29.9in /  1013.9hPa Calm     83.7% 0in /  0.0mm 37 W/m2
08:29 46.9 °F /  8.3 °C 42.1 °F /  5.6 °C 29.9in /  1013.9hPa Calm   2.5mph /  4km/h 83.1% 0in /  0.0mm 42 W/m2
08:34 47.8 °F /  8.8 °C 43 °F /  6.1 °C 29.9in /  1013.9hPa Calm   2.5mph /  4km/h 83.6% 0in /  0.0mm 48 W/m2
08:39 47.8 °F /  8.8 °C 42.6 °F /  5.9 °C 29.9in /  1013.5hPa Calm     82% 0in /  0.0mm 52 W/m2
08:44 48.2 °F /  9 °C 42.4 °F /  5.8 °C 29.9in /  1013.9hPa Calm     80.6% 0in /  0.0mm 55 W/m2
08:49 49.5 °F /  9.7 °C 43.7 °F /  6.5 °C 29.9in /  1013.9hPa Calm     80.7% 0in /  0.0mm 60 W/m2
08:54 50 °F /  10 °C 44.1 °F /  6.7 °C 29.9in /  1013.9hPa Calm     80.1% 0in /  0.0mm 64 W/m2
08:59 50 °F /  10 °C 44.1 °F /  6.7 °C 29.9in /  1013.9hPa South 0.3mph /  0.5km/h 2.5mph /  4km/h 80% 0in /  0.0mm 66 W/m2
09:04 50 °F /  10 °C 44.1 °F /  6.7 °C 29.9in /  1013.9hPa South 0.9mph /  1.5km/h 4.9mph /  7.9km/h 80% 0in /  0.0mm 69 W/m2
09:09 50.5 °F /  10.3 °C 44.4 °F /  6.9 °C 29.9in /  1013.9hPa SE 0.1mph /  0.2km/h 2.5mph /  4km/h 79.3% 0in /  0.0mm 72 W/m2
09:14 50.9 °F /  10.5 °C 44.2 °F /  6.8 °C 29.9in /  1013.9hPa SSW 0.1mph /  0.1km/h 2.5mph /  4km/h 78% 0in /  0.0mm 76 W/m2
09:19 51.3 °F /  10.7 °C 44.1 °F /  6.7 °C 29.9in /  1013.9hPa South 0.2mph /  0.4km/h 4.9mph /  7.9km/h 76.7% 0in /  0.0mm 78 W/m2
09:24 51.4 °F /  10.8 °C 44.2 °F /  6.8 °C 29.9in /  1013.9hPa South 0.6mph /  0.9km/h 4.9mph /  7.9km/h 76.7% 0in /  0.0mm 80 W/m2
09:29 52 °F /  11.1 °C 44.6 °F /  7 °C 29.9in /  1013.9hPa SSE 2.1mph /  3.3km/h 7.6mph /  12.2km/h 76.1% 0in /  0.0mm 81 W/m2
09:34 52.2 °F /  11.2 °C 44.6 °F /  7 °C 29.9in /  1013.9hPa SSE 0.2mph /  0.3km/h 4.9mph /  7.9km/h 75.2% 0in /  0.0mm 82 W/m2
09:39 52.3 °F /  11.3 °C 44.1 °F /  6.7 °C 29.9in /  1013.5hPa South 0.4mph /  0.6km/h 4.9mph /  7.9km/h 73.7% 0in /  0.0mm 83 W/m2
09:44 52.5 °F /  11.4 °C 44.2 °F /  6.8 °C 29.9in /  1013.5hPa South 0.4mph /  0.6km/h 4.9mph /  7.9km/h 73.4% 0in /  0.0mm 85 W/m2
09:49 53.1 °F /  11.7 °C 44.6 °F /  7 °C 29.9in /  1013.9hPa SSE 1.6mph /  2.6km/h 7.6mph /  12.2km/h 73.1% 0in /  0.0mm 86 W/m2
09:54 53.2 °F /  11.8 °C 45.9 °F /  7.7 °C 29.9in /  1013.9hPa SSE 2.1mph /  3.4km/h 7.6mph /  12.2km/h 75.7% 0in /  0.0mm 86 W/m2
09:59 53.1 °F /  11.7 °C 45.7 °F /  7.6 °C 29.9in /  1013.9hPa SSE 1.3mph /  2.1km/h 7.6mph /  12.2km/h 76% 0in /  0.0mm 87 W/m2
10:04 53.1 °F /  11.7 °C 45.3 °F /  7.4 °C 30in /  1014.2hPa SSE 2.2mph /  3.6km/h 7.6mph /  12.2km/h 75.3% 0in /  0.0mm 88 W/m2
10:09 52.7 °F /  11.5 °C 44.8 °F /  7.1 °C 30in /  1014.2hPa South 1.6mph /  2.6km/h 7.6mph /  12.2km/h 74.6% 0in /  0.0mm 88 W/m2
10:14 52.7 °F /  11.5 °C 44.6 °F /  7 °C 30in /  1014.2hPa South 1.1mph /  1.7km/h 7.6mph /  12.2km/h 74.1% 0in /  0.0mm 89 W/m2
10:19 52.9 °F /  11.6 °C 44.4 °F /  6.9 °C 30in /  1014.2hPa SSE 0.7mph /  1.2km/h 4.9mph /  7.9km/h 73.2% 0in /  0.0mm 90 W/m2
10:24 52.9 °F /  11.6 °C 44.6 °F /  7 °C 29.9in /  1013.9hPa SSW 0.7mph /  1.2km/h 4.9mph /  7.9km/h 73.3% 0in /  0.0mm 90 W/m2
10:29 53.6 °F /  12 °C 45 °F /  7.2 °C 29.9in /  1013.9hPa SSE 0.8mph /  1.3km/h 4.9mph /  7.9km/h 72.7% 0in /  0.0mm 93 W/m2
10:34 54.1 °F /  12.3 °C 45.7 °F /  7.6 °C 29.9in /  1013.9hPa South 0.7mph /  1.2km/h 4.9mph /  7.9km/h 72.9% 0in /  0.0mm 95 W/m2
10:39 54.1 °F /  12.3 °C 45.3 °F /  7.4 °C 29.9in /  1013.9hPa SSW 1.2mph /  1.9km/h 10.1mph /  16.3km/h 72.1% 0in /  0.0mm 99 W/m2
10:44 54 °F /  12.2 °C 45.5 °F /  7.5 °C 29.9in /  1013.9hPa SSE 2.6mph /  4.2km/h 10.1mph /  16.3km/h 72.8% 0in /  0.0mm 101 W/m2
10:49 54 °F /  12.2 °C 45.9 °F /  7.7 °C 29.9in /  1013.9hPa South 1.3mph /  2.1km/h 4.9mph /  7.9km/h 73.8% 0in /  0.0mm 102 W/m2
10:54 54 °F /  12.2 °C 45.1 °F /  7.3 °C 29.9in /  1013.9hPa ESE 0.7mph /  1.2km/h 4.9mph /  7.9km/h 72.1% 0in /  0.0mm 105 W/m2
10:59 54 °F /  12.2 °C 45.5 °F /  7.5 °C 29.9in /  1013.9hPa South 1.1mph /  1.8km/h 4.9mph /  7.9km/h 73% 0in /  0.0mm 109 W/m2
11:04 54 °F /  12.2 °C 45.3 °F /  7.4 °C 29.9in /  1013.9hPa SSE 0.3mph /  0.5km/h 7.6mph /  12.2km/h 72.7% 0in /  0.0mm 115 W/m2
11:09 54 °F /  12.2 °C 45.5 °F /  7.5 °C 29.9in /  1013.9hPa SE 0.5mph /  0.8km/h 4.9mph /  7.9km/h 73.2% 0in /  0.0mm 125 W/m2
11:14 54 °F /  12.2 °C 45.7 °F /  7.6 °C 29.9in /  1013.9hPa SSE 0.6mph /  1km/h 4.9mph /  7.9km/h 73.7% 0in /  0.0mm 135 W/m2
11:19 54 °F /  12.2 °C 45.7 °F /  7.6 °C 29.9in /  1013.9hPa SSE 2.2mph /  3.6km/h 7.6mph /  12.2km/h 73.3% 0in /  0.0mm 137 W/m2
11:24 54.1 °F /  12.3 °C 45.5 °F /  7.5 °C 29.9in /  1013.9hPa South 0.7mph /  1.2km/h 7.6mph /  12.2km/h 72.8% 0in /  0.0mm 138 W/m2
11:29 54.5 °F /  12.5 °C 46 °F /  7.8 °C 29.9in /  1013.9hPa SSW 0.2mph /  0.3km/h 7.6mph /  12.2km/h 72.9% 0in /  0.0mm 150 W/m2
11:34 55 °F /  12.8 °C 46.6 °F /  8.1 °C 29.9in /  1013.5hPa SSW 0.5mph /  0.8km/h 4.9mph /  7.9km/h 73% 0in /  0.0mm 171 W/m2
11:39 55 °F /  12.8 °C 46.4 °F /  8 °C 29.9in /  1013.5hPa SE 0.3mph /  0.5km/h 4.9mph /  7.9km/h 72.3% 0in /  0.0mm 208 W/m2
11:44 55 °F /  12.8 °C 46.4 °F /  8 °C 29.9in /  1013.5hPa SE 1.3mph /  2.1km/h 7.6mph /  12.2km/h 72.6% 0in /  0.0mm 220 W/m2
11:49 55 °F /  12.8 °C 46.6 °F /  8.1 °C 29.9in /  1013.2hPa SSE 2.1mph /  3.3km/h 7.6mph /  12.2km/h 73% 0in /  0.0mm 207 W/m2
11:54 54.3 °F /  12.4 °C 46 °F /  7.8 °C 29.9in /  1013.2hPa South 1.6mph /  2.6km/h 7.6mph /  12.2km/h 73.4% 0in /  0.0mm 204 W/m2
11:59 54.3 °F /  12.4 °C 46.4 °F /  8 °C 29.9in /  1013.2hPa SSE 1.9mph /  3km/h 4.9mph /  7.9km/h 74.3% 0in /  0.0mm 161 W/m2
12:04 54.1 °F /  12.3 °C 45.9 °F /  7.7 °C 29.9in /  1012.9hPa SSE 0.3mph /  0.5km/h 4.9mph /  7.9km/h 73.1% 0in /  0.0mm 161 W/m2
12:09 54.3 °F /  12.4 °C 45.9 °F /  7.7 °C 29.9in /  1012.9hPa South 1.2mph /  2km/h 7.6mph /  12.2km/h 72.8% 0in /  0.0mm 170 W/m2
12:14 54.5 °F /  12.5 °C 46 °F /  7.8 °C 29.9in /  1012.9hPa ESE 1.4mph /  2.2km/h 10.1mph /  16.3km/h 73.2% 0in /  0.0mm 163 W/m2
12:19 54.3 °F /  12.4 °C 46.4 °F /  8 °C 29.9in /  1012.9hPa South 0.1mph /  0.2km/h 4.9mph /  7.9km/h 74.6% 0in /  0.0mm 129 W/m2
12:24 54.1 °F /  12.3 °C 46.8 °F /  8.2 °C 29.9in /  1012.9hPa Calm     76% 0in /  0.0mm 118 W/m2
12:29 53.8 °F /  12.1 °C 46.6 °F /  8.1 °C 29.9in /  1012.5hPa SSE 0.6mph /  1km/h 7.6mph /  12.2km/h 76.7% 0in /  0.0mm 121 W/m2
12:34 53.1 °F /  11.7 °C 46 °F /  7.8 °C 29.9in /  1012.2hPa Calm   2.5mph /  4km/h 77% 0in /  0.0mm 138 W/m2
12:39 53.1 °F /  11.7 °C 46.4 °F /  8 °C 29.9in /  1012.5hPa NE 0.1mph /  0.1km/h 2.5mph /  4km/h 78% 0in /  0.0mm 212 W/m2
12:44 53.1 °F /  11.7 °C 46 °F /  7.8 °C 29.9in /  1012.2hPa Calm   4.9mph /  7.9km/h 77% 0in /  0.0mm 240 W/m2
12:49 53.2 °F /  11.8 °C 45.9 °F /  7.7 °C 29.9in /  1012.2hPa ESE 0.5mph /  0.8km/h 4.9mph /  7.9km/h 76.2% 0in /  0.0mm 256 W/m2
12:54 53.8 °F /  12.1 °C 46.2 °F /  7.9 °C 29.9in /  1011.9hPa Calm   2.5mph /  4km/h 75.4% 0in /  0.0mm 271 W/m2
12:59 54 °F /  12.2 °C 46 °F /  7.8 °C 29.9in /  1011.9hPa SE 0.1mph /  0.2km/h 4.9mph /  7.9km/h 74.8% 0in /  0.0mm 287 W/m2
13:04 54.1 °F /  12.3 °C 46.2 °F /  7.9 °C 29.9in /  1011.9hPa SE 0.7mph /  1.2km/h 4.9mph /  7.9km/h 74.7% 0in /  0.0mm 303 W/m2
13:09 54.3 °F /  12.4 °C 46.8 °F /  8.2 °C 29.9in /  1011.5hPa SSE 0.6mph /  0.9km/h 7.6mph /  12.2km/h 75.2% 0in /  0.0mm 317 W/m2
13:14 54.9 °F /  12.7 °C 47.1 °F /  8.4 °C 29.9in /  1011.5hPa SSE 1mph /  1.6km/h 7.6mph /  12.2km/h 75.1% 0in /  0.0mm 227 W/m2
13:19 54.7 °F /  12.6 °C 47.1 °F /  8.4 °C 29.9in /  1011.5hPa SSE 0.4mph /  0.7km/h 4.9mph /  7.9km/h 75.7% 0in /  0.0mm 121 W/m2
13:24 54.5 °F /  12.5 °C 47.1 °F /  8.4 °C 29.9in /  1011.5hPa Calm   2.5mph /  4km/h 76.1% 0in /  0.0mm 103 W/m2
13:29 54.3 °F /  12.4 °C 46.8 °F /  8.2 °C 29.9in /  1011.2hPa Calm     76% 0in /  0.0mm 106 W/m2
13:34 53.6 °F /  12 °C 46.6 °F /  8.1 °C 29.9in /  1011.2hPa SE 0.2mph /  0.4km/h 2.5mph /  4km/h 76.8% 0in /  0.0mm 115 W/m2
13:39 53.6 °F /  12 °C 46.6 °F /  8.1 °C 0in /  0.0hPa Calm   2.5mph /  4km/h 76.8% 0in /  0.0mm 112 W/m2
13:44 53.6 °F /  12 °C 46.6 °F /  8.1 °C 0in /  0.0hPa Calm     77.2% 0in /  0.0mm 96 W/m2
13:49 53.4 °F /  11.9 °C 46.8 °F /  8.2 °C 0in /  0.0hPa Calm     77.9% 0in /  0.0mm 99 W/m2
13:54 53.2 °F /  11.8 °C 46.2 °F /  7.9 °C 29.9in /  1010.8hPa Calm     76.9% 0in /  0.0mm 98 W/m2
13:59 53.2 °F /  11.8 °C 45.9 °F /  7.7 °C 29.9in /  1010.8hPa Calm     76% 0in /  0.0mm 88 W/m2
14:04 53.2 °F /  11.8 °C 46.2 °F /  7.9 °C 29.9in /  1010.8hPa Calm     77% 0in /  0.0mm 84 W/m2
14:09 53.1 °F /  11.7 °C 45.9 °F /  7.7 °C 29.9in /  1010.8hPa Calm     76.7% 0in /  0.0mm 82 W/m2
14:14 52.7 °F /  11.5 °C 46.2 °F /  7.9 °C 29.9in /  1010.8hPa Calm     78.3% 0in /  0.0mm 91 W/m2
14:19 52.7 °F /  11.5 °C 46.4 °F /  8 °C 29.9in /  1010.8hPa Calm     79% 0in /  0.0mm 102 W/m2
14:24 52.5 °F /  11.4 °C 46.4 °F /  8 °C 29.8in /  1010.5hPa Calm     79.6% 0in /  0.0mm 79 W/m2
14:29 52.5 °F /  11.4 °C 46.4 °F /  8 °C 29.8in /  1010.5hPa Calm     79.4% 0in /  0.0mm 135 W/m2
14:34 52.2 °F /  11.2 °C 45.7 °F /  7.6 °C 29.8in /  1010.5hPa Calm     78.6% 0in /  0.0mm 336 W/m2
14:39 52.3 °F /  11.3 °C 45 °F /  7.2 °C 29.8in /  1010.5hPa Calm     76.1% 0in /  0.0mm 332 W/m2
14:44 52.7 °F /  11.5 °C 45.1 °F /  7.3 °C 29.8in /  1010.5hPa Calm     75.4% 0in /  0.0mm 337 W/m2
14:49 53.1 °F /  11.7 °C 45.1 °F /  7.3 °C 29.8in /  1010.5hPa ESE 0.2mph /  0.4km/h 4.9mph /  7.9km/h 74.8% 0in /  0.0mm 343 W/m2
14:54 56.3 °F /  13.5 °C 47.1 °F /  8.4 °C 29.8in /  1010.5hPa Calm     71.6% 0in /  0.0mm 347 W/m2
14:59 56.3 °F /  13.5 °C 47.1 °F /  8.4 °C 29.8in /  1010.2hPa Calm     71.2% 0in /  0.0mm 347 W/m2
15:04 56.3 °F /  13.5 °C 47.1 °F /  8.4 °C 29.8in /  1010.2hPa Calm   2.5mph /  4km/h 71.3% 0in /  0.0mm 313 W/m2
15:09 56.3 °F /  13.5 °C 47.8 °F /  8.8 °C 29.8in /  1010.2hPa ESE 0.2mph /  0.3km/h 4.9mph /  7.9km/h 73% 0in /  0.0mm 306 W/m2
15:14 55.6 °F /  13.1 °C 46.9 °F /  8.3 °C 29.8in /  1010.2hPa Calm   4.9mph /  7.9km/h 72.2% 0in /  0.0mm 243 W/m2
15:19 55.6 °F /  13.1 °C 46.9 °F /  8.3 °C 29.8in /  1010.2hPa SE 0.2mph /  0.3km/h 2.5mph /  4km/h 72.2% 0in /  0.0mm 294 W/m2
15:24 55.8 °F /  13.2 °C 46.4 °F /  8 °C 29.8in /  1010.2hPa Calm   2.5mph /  4km/h 70.7% 0in /  0.0mm 299 W/m2
15:29 55.9 °F /  13.3 °C 46.8 °F /  8.2 °C 29.8in /  1010.2hPa Calm     71% 0in /  0.0mm 287 W/m2
15:34 55 °F /  12.8 °C 46.8 °F /  8.2 °C 29.8in /  1010.2hPa Calm     73.3% 0in /  0.0mm 282 W/m2
15:39 55.2 °F /  12.9 °C 45.9 °F /  7.7 °C 29.8in /  1010.2hPa Calm     70.8% 0in /  0.0mm 284 W/m2
15:44 55.6 °F /  13.1 °C 46 °F /  7.8 °C 29.8in /  1010.2hPa Calm     70.1% 0in /  0.0mm 272 W/m2
15:49 55.6 °F /  13.1 °C 46.9 °F /  8.3 °C 29.8in /  1010.2hPa Calm     72.7% 0in /  0.0mm 247 W/m2
15:54 55.6 °F /  13.1 °C 46.9 °F /  8.3 °C 29.8in /  1010.2hPa Calm     72.5% 0in /  0.0mm 227 W/m2
15:59 55.6 °F /  13.1 °C 46.4 °F /  8 °C 29.8in /  1010.2hPa Calm     70.9% 0in /  0.0mm 250 W/m2
16:04 55.8 °F /  13.2 °C 46.8 °F /  8.2 °C 29.8in /  1010.2hPa Calm     71.9% 0in /  0.0mm 251 W/m2
16:09 55.8 °F /  13.2 °C 47.1 °F /  8.4 °C 29.8in /  1010.2hPa Calm   4.9mph /  7.9km/h 72.4% 0in /  0.0mm 81 W/m2
16:14 54.3 °F /  12.4 °C 46.4 °F /  8 °C 29.8in /  1010.2hPa Calm   2.5mph /  4km/h 74.6% 0in /  0.0mm 59 W/m2
16:19 54.3 °F /  12.4 °C 46.6 °F /  8.1 °C 29.8in /  1010.2hPa Calm     74.9% 0in /  0.0mm 55 W/m2
16:24 54.1 °F /  12.3 °C 46.8 °F /  8.2 °C 29.8in /  1010.2hPa Calm     76% 0in /  0.0mm 51 W/m2
16:29 54 °F /  12.2 °C 46.9 °F /  8.3 °C 29.8in /  1010.2hPa Calm     76.9% 0in /  0.0mm 49 W/m2
16:34 53.1 °F /  11.7 °C 46 °F /  7.8 °C 29.8in /  1010.2hPa Calm     77.3% 0in /  0.0mm 42 W/m2
16:39 52.9 °F /  11.6 °C 46.4 °F /  8 °C 29.8in /  1010.2hPa Calm     78.7% 0in /  0.0mm 34 W/m2
16:44 52.7 °F /  11.5 °C 46.6 °F /  8.1 °C 29.8in /  1010.2hPa Calm     79.3% 0in /  0.0mm 28 W/m2
16:49 52.3 °F /  11.3 °C 46.8 °F /  8.2 °C 29.8in /  1009.8hPa Calm     80.7% 0in /  0.0mm 28 W/m2
16:54 51.3 °F /  10.7 °C 45.7 °F /  7.6 °C 29.8in /  1010.2hPa Calm     81% 0in /  0.0mm 28 W/m2
16:59 50.9 °F /  10.5 °C 45.7 °F /  7.6 °C 29.8in /  1010.2hPa SSW 0.2mph /  0.4km/h 4.9mph /  7.9km/h 81.7% 0in /  0.0mm 25 W/m2
17:04 50.9 °F /  10.5 °C 45.7 °F /  7.6 °C 29.8in /  1010.2hPa Calm   4.9mph /  7.9km/h 82% 0in /  0.0mm 23 W/m2
17:09 50.7 °F /  10.4 °C 45.7 °F /  7.6 °C 29.8in /  1009.8hPa Calm     82.9% 0in /  0.0mm 20 W/m2
17:14 50 °F /  10 °C 45.1 °F /  7.3 °C 29.8in /  1010.2hPa Calm     83.2% 0in /  0.0mm 17 W/m2
17:19 50 °F /  10 °C 45 °F /  7.2 °C 29.8in /  1010.2hPa Calm     82.8% 0in /  0.0mm 12 W/m2
17:24 50 °F /  10 °C 44.8 °F /  7.1 °C 29.8in /  1010.2hPa Calm     82.3% 0in /  0.0mm 9 W/m2
17:29 50 °F /  10 °C 45.1 °F /  7.3 °C 29.8in /  1010.2hPa Calm     83.3% 0in /  0.0mm 6 W/m2
17:34 49.6 °F /  9.8 °C 44.8 °F /  7.1 °C 29.8in /  1010.2hPa Calm     83.6% 0in /  0.0mm 4 W/m2
17:39 49.5 °F /  9.7 °C 44.6 °F /  7 °C 29.8in /  1010.2hPa Calm     83.3% 0in /  0.0mm 2 W/m2
17:44 49.5 °F /  9.7 °C 44.6 °F /  7 °C 29.8in /  1010.2hPa Calm     83.1% 0in /  0.0mm 0 W/m2
17:49 49.3 °F /  9.6 °C 45 °F /  7.2 °C 29.8in /  1010.2hPa Calm     84.6% 0in /  0.0mm 0 W/m2
17:54 48.9 °F /  9.4 °C 44.6 °F /  7 °C 29.8in /  1010.2hPa Calm     85% 0in /  0.0mm 0 W/m2
17:59 48.9 °F /  9.4 °C 44.6 °F /  7 °C 29.8in /  1010.5hPa Calm     85% 0in /  0.0mm 0 W/m2
18:04 48.9 °F /  9.4 °C 44.6 °F /  7 °C 29.8in /  1010.5hPa Calm     85% 0in /  0.0mm 0 W/m2
18:09 48.7 °F /  9.3 °C 44.4 °F /  6.9 °C 29.8in /  1010.2hPa West 0.2mph /  0.3km/h 2.5mph /  4km/h 84.9% 0in /  0.0mm 0 W/m2
18:14 48.6 °F /  9.2 °C 44.4 °F /  6.9 °C 29.8in /  1010.2hPa Calm   2.5mph /  4km/h 85.8% 0in /  0.0mm 0 W/m2
18:19 48.4 °F /  9.1 °C 44.2 °F /  6.8 °C 29.8in /  1010.5hPa Calm   2.5mph /  4km/h 85.3% 0in /  0.0mm 0 W/m2
18:24 48.4 °F /  9.1 °C 43.7 °F /  6.5 °C 29.8in /  1010.5hPa Calm     84% 0in /  0.0mm 0 W/m2
18:29 48.4 °F /  9.1 °C 43.9 °F /  6.6 °C 29.8in /  1010.5hPa Calm     84.3% 0in /  0.0mm 0 W/m2
18:34 48.7 °F /  9.3 °C 43.9 °F /  6.6 °C 29.8in /  1010.5hPa Calm     83% 0in /  0.0mm 0 W/m2
18:39 48.7 °F /  9.3 °C 44.1 °F /  6.7 °C 29.8in /  1010.2hPa Calm     83.5% 0in /  0.0mm 0 W/m2
18:44 48.7 °F /  9.3 °C 44.2 °F /  6.8 °C 29.8in /  1010.2hPa South 1.1mph /  1.7km/h 4.9mph /  7.9km/h 84.4% 0in /  0.0mm 0 W/m2
18:49 48.7 °F /  9.3 °C 44.1 °F /  6.7 °C 29.8in /  1010.2hPa Calm   4.9mph /  7.9km/h 84.1% 0in /  0.0mm 0 W/m2
18:54 48.2 °F /  9 °C 43.9 °F /  6.6 °C 29.8in /  1010.2hPa Calm     84.8% 0in /  0.0mm 0 W/m2
18:59 48 °F /  8.9 °C 43.3 °F /  6.3 °C 29.8in /  1010.2hPa Calm     84.1% 0in /  0.0mm 0 W/m2
19:04 48 °F /  8.9 °C 43.7 °F /  6.5 °C 29.8in /  1010.5hPa Calm     84.9% 0in /  0.0mm 0 W/m2
19:09 48 °F /  8.9 °C 43.2 °F /  6.2 °C 29.8in /  1010.5hPa Calm     83% 0in /  0.0mm 0 W/m2
19:14 48.7 °F /  9.3 °C 43.2 °F /  6.2 °C 29.8in /  1010.5hPa Calm     81% 0in /  0.0mm 0 W/m2
19:19 49.1 °F /  9.5 °C 42.6 °F /  5.9 °C 29.8in /  1010.5hPa Calm     78.2% 0in /  0.0mm 0 W/m2
19:24 49.3 °F /  9.6 °C 42.6 °F /  5.9 °C 29.9in /  1010.8hPa WNW 0.1mph /  0.2km/h 2.5mph /  4km/h 77.8% 0in /  0.0mm 0 W/m2
19:29 49.5 °F /  9.7 °C 42.1 °F /  5.6 °C 29.9in /  1010.8hPa Calm   2.5mph /  4km/h 75.7% 0in /  0.0mm 0 W/m2
19:34 50.4 °F /  10.2 °C 42.4 °F /  5.8 °C 29.9in /  1010.8hPa Calm     74.1% 0in /  0.0mm 0 W/m2
19:39 50.7 °F /  10.4 °C 42.4 °F /  5.8 °C 29.9in /  1010.8hPa Calm     73% 0in /  0.0mm 0 W/m2
19:44 50.7 °F /  10.4 °C 42.3 °F /  5.7 °C 29.9in /  1010.8hPa South 0.2mph /  0.3km/h 2.5mph /  4km/h 72.7% 0in /  0.0mm 0 W/m2
19:49 50.5 °F /  10.3 °C 43.9 °F /  6.6 °C 29.9in /  1010.8hPa Calm     77.3% 0in /  0.0mm 0 W/m2
19:54 49.3 °F /  9.6 °C 43.7 °F /  6.5 °C 29.9in /  1010.8hPa Calm     80.5% 0in /  0.0mm 0 W/m2
19:59 48.7 °F /  9.3 °C 43.5 °F /  6.4 °C 29.9in /  1010.8hPa Calm     82% 0in /  0.0mm 0 W/m2
20:04 48.7 °F /  9.3 °C 42.6 °F /  5.9 °C 29.9in /  1010.8hPa Calm     79.1% 0in /  0.0mm 0 W/m2
20:09 48.9 °F /  9.4 °C 41 °F /  5 °C 29.9in /  1010.8hPa Calm     74% 0in /  0.0mm 0 W/m2
20:14 50.7 °F /  10.4 °C 41.7 °F /  5.4 °C 29.9in /  1010.8hPa Calm   2.5mph /  4km/h 71.4% 0in /  0.0mm 0 W/m2
20:19 51.6 °F /  10.9 °C 42.8 °F /  6 °C 29.9in /  1010.8hPa Calm     71.6% 0in /  0.0mm 0 W/m2
20:24 51.6 °F /  10.9 °C 42.1 °F /  5.6 °C 29.9in /  1010.8hPa Calm     70% 0in /  0.0mm 0 W/m2
20:29 51.8 °F /  11 °C 42.3 °F /  5.7 °C 29.9in /  1011.2hPa Calm     70% 0in /  0.0mm 0 W/m2
20:34 52 °F /  11.1 °C 42.4 °F /  5.8 °C 29.9in /  1010.8hPa Calm     70% 0in /  0.0mm 0 W/m2
20:39 52 °F /  11.1 °C 42.6 °F /  5.9 °C 29.9in /  1010.8hPa Calm     70.6% 0in /  0.0mm 0 W/m2
20:44 52 °F /  11.1 °C 42.4 °F /  5.8 °C 29.9in /  1010.8hPa Calm     70% 0in /  0.0mm 0 W/m2
20:49 52 °F /  11.1 °C 42.4 °F /  5.8 °C 29.9in /  1010.8hPa Calm   2.5mph /  4km/h 70% 0in /  0.0mm 0 W/m2
20:54 52.2 °F /  11.2 °C 42.4 °F /  5.8 °C 29.9in /  1010.8hPa Calm     70% 0in /  0.0mm 0 W/m2
20:59 52.2 °F /  11.2 °C 42.8 °F /  6 °C 29.9in /  1010.8hPa Calm     70.7% 0in /  0.0mm 0 W/m2
21:04 52.2 °F /  11.2 °C 42.8 °F /  6 °C 29.9in /  1010.8hPa Calm     70.3% 0in /  0.0mm 0 W/m2
21:09 52.2 °F /  11.2 °C 42.4 °F /  5.8 °C 29.8in /  1010.5hPa Calm     69.7% 0in /  0.0mm 0 W/m2
21:14 52.2 °F /  11.2 °C 42.4 °F /  5.8 °C 29.8in /  1010.5hPa Calm     69.6% 0in /  0.0mm 0 W/m2
21:19 52.3 °F /  11.3 °C 42.1 °F /  5.6 °C 29.8in /  1010.5hPa SSE 0.1mph /  0.2km/h 2.5mph /  4km/h 68.1% 0in /  0.0mm 0 W/m2
21:24 52.3 °F /  11.3 °C 41.9 °F /  5.5 °C 29.8in /  1010.5hPa Calm     67.4% 0in /  0.0mm 0 W/m2
21:29 52.2 °F /  11.2 °C 42.8 °F /  6 °C 29.8in /  1010.5hPa North 1mph /  1.6km/h 4.9mph /  7.9km/h 70.4% 0in /  0.0mm 0 W/m2
21:34 50.9 °F /  10.5 °C 44.2 °F /  6.8 °C 29.9in /  1010.8hPa NNE 0.3mph /  0.5km/h 7.6mph /  12.2km/h 78.1% 0in /  0.0mm 0 W/m2
21:39 48.6 °F /  9.2 °C 42.4 °F /  5.8 °C 29.8in /  1010.5hPa Calm     79.3% 0in /  0.0mm 0 W/m2
21:44 48.6 °F /  9.2 °C 41.9 °F /  5.5 °C 29.8in /  1010.5hPa West 0.2mph /  0.3km/h 2.5mph /  4km/h 77.7% 0in /  0.0mm 0 W/m2
21:49 48.7 °F /  9.3 °C 41.2 °F /  5.1 °C 29.8in /  1010.5hPa Calm   2.5mph /  4km/h 74.6% 0in /  0.0mm 0 W/m2
21:54 49.5 °F /  9.7 °C 41.5 °F /  5.3 °C 29.8in /  1010.2hPa Calm     73.8% 0in /  0.0mm 0 W/m2
21:59 50.9 °F /  10.5 °C 42.3 °F /  5.7 °C 29.8in /  1010.5hPa WSW 0.1mph /  0.1km/h 2.5mph /  4km/h 72.3% 0in /  0.0mm 0 W/m2
22:04 50.9 °F /  10.5 °C 42.3 °F /  5.7 °C 29.8in /  1010.2hPa Calm     72.1% 0in /  0.0mm 0 W/m2
22:09 50.9 °F /  10.5 °C 42.6 °F /  5.9 °C 29.8in /  1010.5hPa Calm     72.9% 0in /  0.0mm 0 W/m2
22:14 50.5 °F /  10.3 °C 42.4 °F /  5.8 °C 29.8in /  1010.2hPa Calm     73.4% 0in /  0.0mm 0 W/m2
22:19 49.8 °F /  9.9 °C 43.2 °F /  6.2 °C 29.8in /  1010.2hPa Calm     77.6% 0in /  0.0mm 0 W/m2
22:24 49.6 °F /  9.8 °C 43.5 °F /  6.4 °C 29.8in /  1010.2hPa Calm     79.8% 0in /  0.0mm 0 W/m2
22:29 49.1 °F /  9.5 °C 43.3 °F /  6.3 °C 29.8in /  1010.2hPa Calm     80.4% 0in /  0.0mm 0 W/m2
22:34 48.7 °F /  9.3 °C 42.4 °F /  5.8 °C 29.8in /  1010.2hPa Calm     78.6% 0in /  0.0mm 0 W/m2
22:39 48 °F /  8.9 °C 41.7 °F /  5.4 °C 29.8in /  1010.2hPa Calm     78.7% 0in /  0.0mm 0 W/m2
22:44 48 °F /  8.9 °C 42.4 °F /  5.8 °C 29.8in /  1010.2hPa NNW 0.2mph /  0.4km/h 2.5mph /  4km/h 81% 0in /  0.0mm 0 W/m2
22:49 47.7 °F /  8.7 °C 43.7 °F /  6.5 °C 29.8in /  1009.8hPa Calm   2.5mph /  4km/h 85.8% 0in /  0.0mm 0 W/m2
22:54 47.3 °F /  8.5 °C 43 °F /  6.1 °C 29.8in /  1009.8hPa Calm     84.8% 0in /  0.0mm 0 W/m2
22:59 46.6 °F /  8.1 °C 41.4 °F /  5.2 °C 29.8in /  1009.5hPa Calm     82% 0in /  0.0mm 0 W/m2
23:04 46.8 °F /  8.2 °C 40.5 °F /  4.7 °C 29.8in /  1009.8hPa Calm     78.7% 0in /  0.0mm 0 W/m2
23:09 46.9 °F /  8.3 °C 39.9 °F /  4.4 °C 29.8in /  1009.8hPa Calm     76.4% 0in /  0.0mm 0 W/m2
23:14 47.5 °F /  8.6 °C 40.3 °F /  4.6 °C 29.8in /  1009.8hPa Calm     76.1% 0in /  0.0mm 0 W/m2
23:19 48 °F /  8.9 °C 41.9 °F /  5.5 °C 29.8in /  1009.8hPa North 2.2mph /  3.5km/h 4.9mph /  7.9km/h 79.2% 0in /  0.0mm 0 W/m2
23:24 47.8 °F /  8.8 °C 43.5 °F /  6.4 °C 29.8in /  1010.2hPa NNW 2mph /  3.2km/h 7.6mph /  12.2km/h 85.4% 0in /  0.0mm 0 W/m2
23:29 47.7 °F /  8.7 °C 41 °F /  5 °C 29.8in /  1009.8hPa SW 0.4mph /  0.7km/h 4.9mph /  7.9km/h 77.4% 0in /  0.0mm 0 W/m2
23:34 48 °F /  8.9 °C 40.6 °F /  4.8 °C 29.8in /  1009.8hPa SSW 1.2mph /  2km/h 10.1mph /  16.3km/h 75.6% 0in /  0.0mm 0 W/m2
23:39 50 °F /  10 °C 42.3 °F /  5.7 °C 29.8in /  1009.8hPa SSW 0.7mph /  1.1km/h 4.9mph /  7.9km/h 74.2% 0in /  0.0mm 0 W/m2
23:44 50.2 °F /  10.1 °C 41.9 °F /  5.5 °C 29.8in /  1009.5hPa South 0.7mph /  1.2km/h 7.6mph /  12.2km/h 73% 0in /  0.0mm 0 W/m2
23:49 50.2 °F /  10.1 °C 42.1 °F /  5.6 °C 29.8in /  1009.5hPa Calm   4.9mph /  7.9km/h 73.6% 0in /  0.0mm 0 W/m2
23:54 50.2 °F /  10.1 °C 43 °F /  6.1 °C 29.8in /  1009.5hPa Calm     76% 0in /  0.0mm 0 W/m2
23:59 46.9 °F /  8.3 °C 43 °F /  6.1 °C 29.8in /  1009.5hPa Calm     85.5% 0in /  0.0mm 0 W/m2
Juneau County Weather
Compliments of Weather Underground - 2 mb